^^
Station Historical Data
 
Daily Summary for August 17, 2017 Units:  English    Metric   Both
« Previous Day
Next Day »
Daily Weekly Monthly Yearly Custom
  Current: High: Low: Average:
Temperature: 79.9 °F 81.9 °F 65.8 °F 73 °F
Dew Point: 71.2 °F 73.6 °F 63 °F 69.3 °F
Humidity: 75% 95% 70% 89%
Wind Speed: 6.9mph 13.8mph 0.9mph 4.5mph
Wind Gust: 6.9mph 13.8mph - -
WindSouth - - SE
Pressure: 29.6 in 29.8 in 29.6 in -
Precipitation: 0.24 in      
Historical Graphs
 
 
Tabular Data for August 17, 2017
Time Temperature Dew Point Pressure Wind Wind Speed Wind Gust Humidity Rainfall Rate (Hourly) solar Conditions
00:04 66.6 °F 63 °F 29.8 in SSE 1.2 mph 1.3 mph 88% 0 in WeatherDisplay:10.37 W/m2 OVC
00:09 66.6 °F 63 °F 29.8 in SSE 3.5 mph 3.5 mph 88% 0.01 in WeatherDisplay:10.37 W/m2 RA
00:14 66.6 °F 63.5 °F 29.8 in SW 1.2 mph 1.2 mph 90% 0.05 in WeatherDisplay:10.37 W/m2 RA
00:19 66.4 °F 63.7 °F 29.8 in SW 2.3 mph 2.3 mph 91% 0.08 in WeatherDisplay:10.37 W/m2 RA
00:24 66 °F 63.3 °F 29.8 in NE 1.2 mph 1.6 mph 91% 0.08 in WeatherDisplay:10.37 W/m2 -RA
00:29 66 °F 63.3 °F 29.8 in NNE 0.9 mph 0.9 mph 91% 0.08 in WeatherDisplay:10.37 W/m2 -RA
00:34 65.8 °F 63.1 °F 29.8 in North 3.5 mph 3.5 mph 91% 0.09 in WeatherDisplay:10.37 W/m2 +RA
00:39 65.8 °F 63.9 °F 29.8 in SW 1.2 mph 1.2 mph 93% 0.09 in WeatherDisplay:10.37 W/m2 +RA
00:44 66 °F 63.9 °F 29.8 in SSW 3.5 mph 3.5 mph 93% 0.09 in WeatherDisplay:10.37 W/m2 +RA
00:49 66.4 °F 64.2 °F 29.8 in East 3.5 mph 3.5 mph 93% 0.09 in WeatherDisplay:10.37 W/m2 +RA
00:54 66.6 °F 64.6 °F 29.8 in WNW 3.5 mph 3.5 mph 93% 0.09 in WeatherDisplay:10.37 W/m2 OVC
00:59 66.6 °F 64.6 °F 29.8 in NE 3.5 mph 3.5 mph 93% 0.1 in WeatherDisplay:10.37 W/m2 RA
01:04 66.9 °F 64.8 °F 29.7 in NW 3.5 mph 3.5 mph 93% 0.16 in WeatherDisplay:10.37 W/m2 -RA
01:09 67.3 °F 65.1 °F 29.7 in North 8 mph 8 mph 93% 0.15 in WeatherDisplay:10.37 W/m2 -RA
01:10 67.3 °F 65.1 °F 29.7 in ENE 2 mph 8 mph 93% 0.05 in WeatherDisplay:10.37 W/m2 -RA
01:15 67.3 °F 65.1 °F 29.7 in East 3 mph 6 mph 93% 0 in WeatherDisplay:10.37 W/m2 -RA
01:19 67.3 °F 65.1 °F 29.7 in East 3.5 mph 3.5 mph 93% 0.08 in WeatherDisplay:10.37 W/m2 -RA
01:25 67.6 °F 65.5 °F 29.7 in East 6.9 mph 6.9 mph 93% 0.08 in WeatherDisplay:10.37 W/m2 -RA
01:29 67.6 °F 65.5 °F 29.7 in ESE 4 mph 4 mph 93% 0.08 in WeatherDisplay:10.37 W/m2 -RA
01:34 67.8 °F 66.4 °F 29.7 in West 4.6 mph 4.6 mph 95% 0.07 in WeatherDisplay:10.37 W/m2 -RA
01:39 68 °F 66.6 °F 29.7 in NE 3.5 mph 3.5 mph 95% 0.07 in WeatherDisplay:10.37 W/m2 -RA
01:45 68.2 °F 66.7 °F 29.7 in East 3 mph 7 mph 95% 0 in WeatherDisplay:10.37 W/m2 -RA
01:50 68.4 °F 66.9 °F 29.7 in East 2 mph 7 mph 95% 0 in WeatherDisplay:10.37 W/m2 -RA
01:55 68.4 °F 66.9 °F 29.7 in East 1 mph 6 mph 95% 0 in WeatherDisplay:10.37 W/m2 -RA
02:00 68.4 °F 66.9 °F 29.7 in East 3 mph 6 mph 95% 0 in WeatherDisplay:10.37 W/m2 -RA
02:05 68.5 °F 67.1 °F 29.7 in ENE 3 mph 6 mph 95% 0 in WeatherDisplay:10.37 W/m2 -RA
02:10 68.5 °F 67.1 °F 29.7 in West 4.6 mph 4.6 mph 95% 0 in WeatherDisplay:10.37 W/m2 -RA
02:15 68.9 °F 67.5 °F 29.7 in SE 3 mph 6 mph 95% 0 in WeatherDisplay:10.37 W/m2 -RA
02:20 68.9 °F 67.5 °F 29.7 in SE 5 mph 10 mph 95% 0 in WeatherDisplay:10.37 W/m2 -RA
02:25 68.9 °F 67.5 °F 29.7 in ESE 2 mph 7 mph 95% 0 in WeatherDisplay:10.37 W/m2 -RA
02:30 69.1 °F 67.6 °F 29.7 in SSW 4.6 mph 4.6 mph 95% 0 in WeatherDisplay:10.37 W/m2 -RA
02:35 69.3 °F 67.8 °F 29.7 in ESE 6.9 mph 6.9 mph 95% 0 in WeatherDisplay:10.37 W/m2 -RA
02:40 69.4 °F 67.8 °F 29.7 in SSE 4.6 mph 4.6 mph 95% 0 in WeatherDisplay:10.37 W/m2 -RA
02:44 69.6 °F 68.2 °F 29.7 in ESE 12.7 mph 12.7 mph 95% 0 in WeatherDisplay:10.37 W/m2 -RA
02:50 69.6 °F 68.2 °F 29.7 in SE 4.9 mph 4.9 mph 95% 0 in WeatherDisplay:10.37 W/m2 -RA
02:55 69.6 °F 68.2 °F 29.7 in SSE 8.1 mph 8.1 mph 95% 0 in WeatherDisplay:10.37 W/m2 -RA
03:00 69.6 °F 68.2 °F 29.7 in SSE 2 mph 7 mph 95% 0 in WeatherDisplay:10.37 W/m2 -RA
03:05 69.6 °F 68.2 °F 29.7 in SE 3 mph 5 mph 95% 0 in WeatherDisplay:10.37 W/m2 OVC
03:10 69.8 °F 68.4 °F 29.7 in SE 3 mph 8 mph 95% 0 in WeatherDisplay:10.37 W/m2 OVC
03:15 69.8 °F 68.4 °F 29.7 in ESE 3 mph 7 mph 95% 0 in WeatherDisplay:10.37 W/m2 OVC
03:19 69.8 °F 68.4 °F 29.7 in SSW 5.8 mph 5.8 mph 95% 0 in WeatherDisplay:10.37 W/m2 OVC
03:25 70 °F 68.5 °F 29.7 in SE 5 mph 7 mph 95% 0 in WeatherDisplay:10.37 W/m2 OVC
03:29 70 °F 68.5 °F 29.7 in SSW 6 mph 6 mph 95% 0 in WeatherDisplay:10.37 W/m2 OVC
03:35 70 °F 68.5 °F 29.7 in East 4.6 mph 4.6 mph 95% 0 in WeatherDisplay:10.37 W/m2 OVC
03:40 70 °F 68.5 °F 29.7 in NE 5.8 mph 5.8 mph 95% 0 in WeatherDisplay:10.37 W/m2 OVC
03:45 70 °F 68.5 °F 29.7 in NE 5.8 mph 5.8 mph 95% 0 in WeatherDisplay:10.37 W/m2 OVC
03:49 70 °F 68.5 °F 29.7 in South 3.5 mph 3.5 mph 95% 0 in WeatherDisplay:10.37 W/m2 OVC
03:54 70.2 °F 68.7 °F 29.7 in NNE 3.5 mph 3.5 mph 95% 0 in WeatherDisplay:10.37 W/m2 OVC
04:00 70.3 °F 68.7 °F 29.7 in SE 2.3 mph 2.3 mph 95% 0 in WeatherDisplay:10.37 W/m2 OVC
04:05 70.5 °F 69.1 °F 29.7 in South 5.8 mph 5.8 mph 95% 0 in WeatherDisplay:10.37 W/m2 OVC
04:10 70.5 °F 69.1 °F 29.7 in ESE 3.5 mph 3.5 mph 95% 0 in WeatherDisplay:10.37 W/m2 OVC
04:15 70.5 °F 69.1 °F 29.7 in East 2.3 mph 2.3 mph 95% 0 in WeatherDisplay:10.37 W/m2 OVC
04:19 70.5 °F 69.1 °F 29.7 in ESE 4.6 mph 4.6 mph 95% 0 in WeatherDisplay:10.37 W/m2 OVC
04:24 70.9 °F 69.4 °F 29.7 in SSE 2 mph 2 mph 95% 0 in WeatherDisplay:10.37 W/m2 OVC
04:30 70.9 °F 69.4 °F 29.7 in ENE 3.5 mph 3.5 mph 95% 0 in WeatherDisplay:10.37 W/m2 OVC
04:35 70.9 °F 69.4 °F 29.7 in SE 3.5 mph 3.5 mph 95% 0 in WeatherDisplay:10.37 W/m2 OVC
04:39 70.9 °F 69.4 °F 29.7 in SE 4 mph 4 mph 95% 0 in WeatherDisplay:10.37 W/m2 OVC
04:45 71.1 °F 69.6 °F 29.7 in SSE 4 mph 4 mph 95% 0 in WeatherDisplay:10.37 W/m2 OVC
04:50 71.1 °F 69.6 °F 29.7 in SE 2 mph 4 mph 95% 0 in WeatherDisplay:10.37 W/m2 OVC
04:55 71.1 °F 69.6 °F 29.7 in SE 2 mph 3 mph 95% 0 in WeatherDisplay:10.37 W/m2 OVC
05:00 71.1 °F 69.6 °F 29.7 in SE 2 mph 5 mph 95% 0 in WeatherDisplay:10.37 W/m2 OVC
05:05 71.1 °F 69.6 °F 29.7 in ESE 2 mph 2 mph 95% 0 in WeatherDisplay:10.37 W/m2 OVC
05:10 71.1 °F 69.6 °F 29.7 in SE 1 mph 4 mph 95% 0 in WeatherDisplay:10.37 W/m2 OVC
05:15 71.1 °F 69.6 °F 29.7 in SE 1 mph 3 mph 95% 0 in WeatherDisplay:10.37 W/m2 OVC
05:20 71.4 °F 70 °F 29.7 in SE 1 mph 3 mph 95% 0 in WeatherDisplay:10.37 W/m2 OVC
05:25 71.4 °F 70 °F 29.7 in SSE 2 mph 5 mph 95% 0 in WeatherDisplay:10.37 W/m2 OVC
05:30 71.4 °F 70 °F 29.7 in SE 2 mph 4 mph 95% 0 in WeatherDisplay:10.37 W/m2 OVC
05:35 71.4 °F 70 °F 29.7 in SE 2 mph 4 mph 95% 0 in WeatherDisplay:10.37 W/m2 OVC
05:39 71.4 °F 70 °F 29.7 in ESE 2.9 mph 2.9 mph 95% 0 in WeatherDisplay:10.37 W/m2 OVC
05:45 71.4 °F 70 °F 29.6 in SSE 3.5 mph 3.5 mph 95% 0 in WeatherDisplay:10.37 W/m2 OVC
05:50 71.4 °F 70 °F 29.6 in ESE 3.5 mph 3.5 mph 95% 0 in WeatherDisplay:10.37 W/m2 OVC
05:55 71.4 °F 70 °F 29.7 in ESE 3.5 mph 3.5 mph 95% 0 in WeatherDisplay:10.37 W/m2 OVC
05:59 71.8 °F 70.3 °F 29.7 in ESE 5.8 mph 5.8 mph 95% 0 in WeatherDisplay:10.37 W/m2 OVC
06:05 71.8 °F 70.3 °F 29.7 in ENE 4.6 mph 4.6 mph 95% 0 in WeatherDisplay:10.37 W/m2 -RA
06:10 71.8 °F 70.3 °F 29.7 in SE 2.9 mph 2.9 mph 95% 0.01 in WeatherDisplay:10.37 W/m2 -RA
06:15 71.8 °F 70.3 °F 29.7 in ESE 3.5 mph 3.5 mph 95% 0.01 in WeatherDisplay:10.37 W/m2 -RA
06:20 71.8 °F 70.3 °F 29.7 in SE 2 mph 5 mph 95% 0.01 in WeatherDisplay:10.37 W/m2 -RA
06:25 72 °F 70.3 °F 29.7 in West 3.5 mph 3.5 mph 95% 0.02 in WeatherDisplay:10.37 W/m2 -RA
06:30 72 °F 70.3 °F 29.7 in SE 3 mph 8 mph 95% 0.01 in WeatherDisplay:10.37 W/m2 -RA
06:35 72 °F 70.3 °F 29.7 in SE 3 mph 7 mph 95% 0 in WeatherDisplay:10.37 W/m2 -RA
06:40 72 °F 70.3 °F 29.7 in SSE 5 mph 9 mph 95% 0.02 in WeatherDisplay:10.37 W/m2 -RA
06:45 71.8 °F 70.3 °F 29.6 in SE 3 mph 10 mph 95% 0.02 in WeatherDisplay:10.37 W/m2 -RA
06:50 71.4 °F 70 °F 29.6 in SE 3 mph 6 mph 95% 0 in WeatherDisplay:10.37 W/m2 -RA
06:55 71.4 °F 70 °F 29.7 in SSE 3 mph 7 mph 95% 0.02 in WeatherDisplay:10.37 W/m2 -RA
07:00 71.1 °F 69.6 °F 29.7 in SW 3.5 mph 3.5 mph 95% 0.08 in WeatherDisplay:10.37 W/m2 -RA
07:05 71.1 °F 69.6 °F 29.7 in SE 2 mph 4 mph 95% 0 in WeatherDisplay:10.37 W/m2 -RA
07:10 70.9 °F 69.4 °F 29.7 in SSE 1 mph 3 mph 95% 0 in WeatherDisplay:10.37 W/m2 -RA
07:15 70.5 °F 69.1 °F 29.7 in South 4.6 mph 4.6 mph 95% 0.07 in WeatherDisplay:10.37 W/m2 -RA
07:20 70.5 °F 69.1 °F 29.7 in SE 2 mph 5 mph 95% 0 in WeatherDisplay:10.37 W/m2 -RA
07:24 70.5 °F 69.1 °F 29.7 in East 2.3 mph 2.3 mph 95% 0.06 in WeatherDisplay:10.37 W/m2 -RA
07:30 70.5 °F 69.1 °F 29.7 in SE 4 mph 4 mph 95% 0.06 in WeatherDisplay:10.37 W/m2 -RA
07:35 70.5 °F 69.1 °F 29.7 in SE 2 mph 4 mph 95% 0 in WeatherDisplay:10.37 W/m2 -RA
07:40 70.5 °F 69.1 °F 29.7 in SE 2 mph 4 mph 95% 0 in WeatherDisplay:10.37 W/m2 SCT
07:45 71.1 °F 69.1 °F 29.7 in SE 2 mph 6 mph 93% 0 in WeatherDisplay:10.37 W/m2 SCT
07:50 72.1 °F 69.3 °F 29.7 in SE 2 mph 4 mph 91% 0 in WeatherDisplay:10.37 W/m2 SCT
07:55 72.9 °F 69.8 °F 29.7 in ESE 4 mph 4 mph 90% 0 in WeatherDisplay:10.37 W/m2 SCT
08:00 73.2 °F 69.4 °F 29.6 in SE 2 mph 4 mph 88% 0 in WeatherDisplay:10.37 W/m2 SCT
08:05 73.9 °F 70.2 °F 29.6 in SE 2 mph 4 mph 88% 0 in WeatherDisplay:10.37 W/m2 FEW
08:10 73.9 °F 70.2 °F 29.7 in SSE 3.5 mph 3.5 mph 88% 0 in WeatherDisplay:10.37 W/m2 FEW
08:15 74.8 °F 71.1 °F 29.6 in SSE 2 mph 5 mph 88% 0 in WeatherDisplay:10.37 W/m2 FEW
08:20 74.8 °F 70.3 °F 29.6 in South 4.6 mph 4.6 mph 86% 0 in WeatherDisplay:10.37 W/m2 FEW
08:25 75.6 °F 71.1 °F 29.6 in SSE 2 mph 6 mph 86% 0 in WeatherDisplay:10.37 W/m2 FEW
08:30 76.5 °F 72 °F 29.6 in SSE 2 mph 5 mph 86% 0 in WeatherDisplay:10.37 W/m2 FEW
08:35 76.5 °F 72 °F 29.6 in SE 3 mph 6 mph 86% 0 in WeatherDisplay:10.37 W/m2 FEW
08:40 76.6 °F 72.1 °F 29.6 in SE 3 mph 7 mph 86% 0 in WeatherDisplay:10.37 W/m2 FEW
08:45 76.5 °F 72 °F 29.6 in SSE 3 mph 6 mph 86% 0 in WeatherDisplay:10.37 W/m2 FEW
08:50 76.5 °F 72 °F 29.6 in SSE 3.5 mph 3.5 mph 86% 0 in WeatherDisplay:10.37 W/m2 FEW
08:55 77.4 °F 72.5 °F 29.6 in South 3 mph 6 mph 85% 0 in WeatherDisplay:10.37 W/m2 FEW
09:00 76.8 °F 72.3 °F 29.7 in SSE 9.2 mph 9.2 mph 86% 0 in WeatherDisplay:10.37 W/m2 FEW
09:05 77.5 °F 72.7 °F 29.7 in SSE 3 mph 5 mph 85% 0 in WeatherDisplay:10.37 W/m2 BKN
09:10 77.4 °F 72.5 °F 29.7 in South 6 mph 10 mph 85% 0 in WeatherDisplay:10.37 W/m2 BKN
09:15 78.1 °F 72.5 °F 29.7 in South 3 mph 9 mph 83% 0 in WeatherDisplay:10.37 W/m2 BKN
09:20 78.8 °F 72.9 °F 29.7 in South 3 mph 6 mph 82% 0 in WeatherDisplay:10.37 W/m2 BKN
09:25 77.4 °F 72 °F 29.7 in SSE 3 mph 6 mph 83% 0 in WeatherDisplay:10.37 W/m2 BKN
09:30 77.4 °F 71.8 °F 29.7 in SE 5 mph 8 mph 83% 0 in WeatherDisplay:10.37 W/m2 BKN
09:35 78.4 °F 72.1 °F 29.6 in SSE 6 mph 12 mph 81% 0 in WeatherDisplay:10.37 W/m2 BKN
09:40 79.3 °F 72.7 °F 29.7 in SW 5.8 mph 5.8 mph 80% 0 in WeatherDisplay:10.37 W/m2 BKN
09:45 80.1 °F 73 °F 29.6 in South 9.2 mph 9.2 mph 79% 0 in WeatherDisplay:10.37 W/m2 BKN
09:50 79.5 °F 72.3 °F 29.6 in ESE 3.5 mph 4.7 mph 79% 0 in WeatherDisplay:10.37 W/m2 BKN
09:55 80.4 °F 72.9 °F 29.6 in South 4.6 mph 4.6 mph 78% 0 in WeatherDisplay:10.37 W/m2 BKN
10:00 81 °F 73.6 °F 29.6 in SSE 4.9 mph 4.9 mph 78% 0 in WeatherDisplay:10.37 W/m2 BKN
10:05 81.9 °F 73.6 °F 29.6 in SSW 4.6 mph 4.6 mph 76% 0 in WeatherDisplay:10.37 W/m2 BKN
10:10 81.3 °F 72.7 °F 29.6 in SE 10.4 mph 10.4 mph 75% 0 in WeatherDisplay:10.37 W/m2 BKN
10:15 80.1 °F 71.4 °F 29.6 in SE 5.8 mph 5.8 mph 75% 0 in WeatherDisplay:10.37 W/m2 BKN
10:20 79.3 °F 71.1 °F 29.6 in ESE 9.2 mph 9.2 mph 76% 0 in WeatherDisplay:10.37 W/m2 BKN
10:25 79.2 °F 71.8 °F 29.6 in South 4.9 mph 4.9 mph 78% 0 in WeatherDisplay:10.37 W/m2 BKN
10:30 80.1 °F 71.4 °F 29.6 in SSE 9.2 mph 9.2 mph 75% 0 in WeatherDisplay:10.37 W/m2 BKN
10:35 79.3 °F 70.7 °F 29.6 in SW 11.5 mph 11.5 mph 75% 0 in WeatherDisplay:10.37 W/m2 SCT
10:40 78.8 °F 71.4 °F 29.6 in SW 5.8 mph 5.8 mph 78% 0 in WeatherDisplay:10.37 W/m2 SCT
10:45 79 °F 71.4 °F 29.6 in SSE 6.9 mph 6.9 mph 78% 0 in WeatherDisplay:10.37 W/m2 SCT
10:50 81 °F 72.3 °F 29.6 in ESE 9.2 mph 9.2 mph 75% 0 in WeatherDisplay:10.37 W/m2 SCT
10:55 81.3 °F 72.1 °F 29.6 in SSE 4.6 mph 4.7 mph 74% 0 in WeatherDisplay:10.37 W/m2 SCT
11:00 81 °F 72 °F 29.6 in ESE 11.5 mph 11.5 mph 74% 0 in WeatherDisplay:10.37 W/m2 SCT
11:05 81.3 °F 71.8 °F 29.6 in SSE 6.9 mph 6.9 mph 73% 0 in WeatherDisplay:10.37 W/m2 BKN
11:10 80.2 °F 71.2 °F 29.6 in SE 4.9 mph 5.1 mph 74% 0 in WeatherDisplay:10.37 W/m2 BKN
11:15 79.5 °F 70.5 °F 29.6 in SSW 10.4 mph 10.4 mph 74% 0 in WeatherDisplay:10.37 W/m2 BKN
11:20 81.9 °F 71.4 °F 29.6 in South 10.1 mph 10.1 mph 71% 0 in WeatherDisplay:10.37 W/m2 BKN
11:25 81.9 °F 71.4 °F 29.6 in South 6 mph 12 mph 71% 0 in WeatherDisplay:10.37 W/m2 BKN
11:30 81.9 °F 71.1 °F 29.6 in SSW 10.4 mph 10.4 mph 70% 0 in WeatherDisplay:10.37 W/m2 BKN
11:35 81.3 °F 71.1 °F 29.6 in SE 10.4 mph 10.4 mph 71% 0 in WeatherDisplay:10.37 W/m2 BKN
11:40 81.9 °F 71.1 °F 29.6 in SSW 11.5 mph 11.5 mph 70% 0 in WeatherDisplay:10.37 W/m2 BKN
11:45 81 °F 70.7 °F 29.6 in WNW 13.8 mph 13.8 mph 71% 0 in WeatherDisplay:10.37 W/m2 BKN
11:50 79.9 °F 70.9 °F 29.6 in SSW 11.5 mph 11.5 mph 74% 0 in WeatherDisplay:10.37 W/m2 BKN
11:55 80.2 °F 71.2 °F 29.6 in South 13.8 mph 13.8 mph 74% 0 in WeatherDisplay:10.37 W/m2 BKN
12:00 80.8 °F 71.8 °F 29.6 in SSE 9.2 mph 9.2 mph 74% 0 in WeatherDisplay:10.37 W/m2 BKN
12:05 79.2 °F 70.2 °F 29.6 in SW 5.8 mph 6.7 mph 74% 0 in WeatherDisplay:10.37 W/m2 -RA
12:10 79.2 °F 70.2 °F 29.6 in SE 6 mph 6 mph 74% 0 in WeatherDisplay:10.37 W/m2 -RA
12:15 78.8 °F 69.4 °F 29.6 in North 6 mph 6.7 mph 73% 0 in WeatherDisplay:10.37 W/m2 -RA
12:20 78.1 °F 69.4 °F 29.6 in SSW 9.2 mph 9.2 mph 75% 0 in WeatherDisplay:10.37 W/m2 -RA
12:25 79.3 °F 70.7 °F 29.6 in ESE 10.4 mph 10.4 mph 75% 0 in WeatherDisplay:10.37 W/m2 -RA
12:30 79.9 °F 71.2 °F 29.6 in South 6.9 mph 6.9 mph 75% 0 in WeatherDisplay:10.37 W/m2 -RA
Juneau County Weather
Compliments of Weather Underground - 3.5 mb